Washburn, ME (04786)

10:03 PM EDT on July 25, 2014 (GMT -0400)
Micmac Environmental (KMECARIB5) Elev 634 ft | 46.78 °N, 67.99 °W | Change Station

Current weather conditions updated 2 seconds ago

Partly Cloudy
Partly Cloudy
65.8 °F
Feels Like 65.8 °F
N
0.0
Wind Variable Wind from WNW
Gusts 3.0 mph

Tomorrow is forecast to be nearly the same temperature as today.

Today
High -- | Low -- °F
--% Chance of Precip.
Yesterday
High -- | Low -- °F
Precip. -- in
5:04 AM 8:13 PM
Waning Crescent, 1% visible
Pressure 29.84 in
Visibility 10.0 miles
Clouds Few 11000 ft
Dew Point 56 °F
Humidity 72%
Rainfall 0.00 in
Snow Depth Not available.
UV 0.0 out of 12
Pollen 5.40 out of 12
Ozone Good
PM2.5 Moderate
Flu Activity Not available.
METAR KPQI 260155Z AUTO 26003KT 10SM FEW110 19/11 A2984 RMK AO1

More Conditions Fewer Conditions

Pressure 29.84 in
Visibility 10.0 miles
Clouds Few 11000 ft
Dew Point 56 °F
Humidity 72%
Rainfall 0.00 in
Snow Depth Not available.
UV 0.0 out of 12
Pollen 5.40 out of 12
Ozone Good
PM2.5 Moderate
Flu Activity Not available.
METAR KPQI 260155Z AUTO 26003KT 10SM FEW110 19/11 A2984 RMK AO1

More Conditions Fewer Conditions

10-Day Weather Forecast

Almanac

Astronomy

Jul. 25, 2014 Rise Set
Actual Time 5:04 AM EDT 8:13 PM EDT
Civil Twilight 4:27 AM EDT 8:49 PM EDT
Nautical Twilight 3:40 AM EDT 9:36 PM EDT
Astronomical Twilight 2:42 AM EDT 10:33 PM EDT
Moon 4:02 AM EDT (7/25) 7:03 PM EDT (7/25)
Length of Visible Light 16h 21m
Length of Day
15h 08m
Tomorrow will be 2m 20s shorter.
Waning Crescent, 1% of the Moon is Illuminated
Today
Waning Crescent
Jul 26
New
Aug 3
First Quarter
Aug 10
Full
Aug 17
Last Quarter

Today's Extremes

State Highs State Lows

Community

WunderPhotos

Upload Photos

1,737,475 photos uploaded!

Nearby

Air Quality

  Air Quality AQ Index Pollutant
Yesterday Good
OZONE
Yesterday Good
PM2.5
Current Moderate
PM2.5
Current Good
OZONE
Friday Good
OZONE
Friday Good
PM2.5
Saturday Good
OZONE
Saturday Good
PM2.5
Sunday Good
OZONE
Sunday Good
PM2.5
Monday Good
OZONE
Monday Good
PM2.5
Tuesday Good
OZONE
Tuesday Good
PM2.5

Snow Depth

Station Depth Elevation
No new snow has been reported.

Earthquake Activity

City Distance Mag. Time & Date
No recent earthquake activity has been reported nearby.
Minimum magnitude displayed is 2.5.

Coastal Water Temperatures

Place Temperature
No Stations Reporting

Nearby Weather Stations

Station Location Temp. Dew Point Humidity Wind Precip. Elev Updated Type
Micmac Environmental, Caribou, ME 65.8 °F 56 °F 72% WNW  at  0.0 mph 0.00 in / hr 634 ft 10:03 PM EDT Rapid Fire
Micmac Environmental, Presque Isle, ME 67.7 °F 57 °F 68% West  at  0.0 mph 0.00 in / hr 540 ft 10:03 PM EDT Rapid Fire
APRSWXNET Presque Isle ME , Presque Isle, ME 68 °F 57 °F 68% North  at  1 mph 0.00 in / hr 2099 ft 8:01 PM EDT MADIS

Show More Stations Show Fewer Stations